Souderton, PA

5:55 PM EST en Noviembre 26, 2014 (GMT -0500)
Pottstown Limerick | Change Station
CLOSE
Current Station
Aeropuerto
Location: Pottstown,
Altura: 308 ft
Estaciones meteorológicas cercanas

Alt 308 ft 40.24 °N, 75.55 °W | Updated 53 minutes ago

Nieve
Nieve
33 ° F
Sensación térmica 25 ° F
N
10
Viento Variable Viento desde NNO

Hoy
Alta -- | Baja -- ° F
--% Posibilidad de precipitaciones
Ayer
Alta -- | Baja -- ° F
Precip. -- pul
6:59 AM 4:37 PM
Creciente, 23% visible
Presión 29.88 pul
Visibilidad 5.0 Millas
Nubes Baja 600 ft
Nubes dispersas 1100 ft
Nublado 2700 ft
Vientos helados 25 ° F
Punto de rocío 32 ° F
Humedad 96%
Precipitaciones 1.08 pul
Espesor de la nieve No disponible.
UV 0 de una escala de 12
Polen .10 de una escala de 12
Calidad del aire No disponible.
Flu Activity No disponible.
SPECI KPTW 262202Z AUTO 33009KT 5SM -SN BR FEW006 SCT011 OVC027 01/00 A2988 RMK AO2 P0001 T00060000

More Conditions Fewer Conditions

Presión 29.88 pul
Visibilidad 5.0 Millas
Nubes Baja 600 ft
Nubes dispersas 1100 ft
Nublado 2700 ft
Vientos helados 25 ° F
Punto de rocío 32 ° F
Humedad 96%
Precipitaciones 1.08 pul
Espesor de la nieve No disponible.
UV 0 de una escala de 12
Polen .10 de una escala de 12
Calidad del aire No disponible.
Flu Activity No disponible.
SPECI KPTW 262202Z AUTO 33009KT 5SM -SN BR FEW006 SCT011 OVC027 01/00 A2988 RMK AO2 P0001 T00060000

More Conditions Fewer Conditions

10-Day Weather Forecast

Almanac

Astronomía

Nov. 26, 2014 Salida Puesta
Hora real
Crepúsculo civil
Crepúsculo náutico
Crepúsculo astronómico
Luna
Horas de luz
Horas de luz
Tomorrow will be .
, % of the Moon is Illuminated

Extremos de hoy

Máximos del estado Bajos del estado

Community

WunderPhotos

Upload Photos

1,773,908 ¡fotos cargadas!

WunderBlogs® & News

Nearby

Calidad del aire

  Calidad del aire Índice AQ Contaminante
Not available.

Grosos de nieve

Estación Profundido Altura

Actividad de terremotos

Ciudad Distance Mag. Tiempo y dato
Magnitud mínima muestra es 2,5.

Temperaturas de aguas costeras

Lugar Temperatura

Estaciones meteorológicas cercanas